Time;durP1;ratioP1;P1;durP2;ratioP2;P2;SDS_P1;SDS_P2;PMS_P1;PMS_P2;Temp;Humidity;BMP_temperature;BMP_pressure;BME280_temperature;BME280_humidity;BME280_pressure;Samples;Min_cycle;Max_cycle;Signal;HPM_P1;HPM_P2
2021/01/10 00:01:30;;;;;;;17.20;12.30;;;-2.20;90.00;;;;;;5013143;28;20632;-86
2021/01/10 00:03:57;;;;;;;20.20;12.20;;;-2.20;90.10;;;;;;5015626;28;20225;-82
2021/01/10 00:06:24;;;;;;;19.67;12.47;;;-2.10;90.10;;;;;;5015556;28;20214;-83
2021/01/10 00:08:51;;;;;;;18.57;12.03;;;-2.10;90.00;;;;;;5017439;28;20594;-85
2021/01/10 00:11:17;;;;;;;19.80;13.13;;;-2.20;90.10;;;;;;5014377;28;20469;-84
2021/01/10 00:13:43;;;;;;;19.83;12.80;;;-2.20;90.40;;;;;;5014787;28;20259;-81
2021/01/10 00:16:10;;;;;;;24.70;15.60;;;-2.30;90.80;;;;;;5017188;28;20224;-83
2021/01/10 00:18:36;;;;;;;27.90;16.30;;;-2.30;91.00;;;;;;5014795;28;20247;-84
2021/01/10 00:21:03;;;;;;;27.60;16.63;;;-2.20;91.30;;;;;;5014667;28;20556;-82
2021/01/10 00:23:30;;;;;;;31.40;18.27;;;-2.30;91.80;;;;;;5012332;28;20275;-83
2021/01/10 00:25:57;;;;;;;28.07;17.73;;;-2.30;92.00;;;;;;5012332;28;20657;-85
2021/01/10 00:28:23;;;;;;;28.10;18.33;;;-2.40;92.50;;;;;;5012398;28;20238;-82
2021/01/10 00:30:49;;;;;;;32.27;18.07;;;-2.40;92.80;;;;;;5011839;28;20629;-84
2021/01/10 00:33:15;;;;;;;28.07;18.20;;;-2.40;93.10;;;;;;5012254;28;20227;-87
2021/01/10 00:35:42;;;;;;;28.60;18.07;;;-2.50;93.80;;;;;;5013728;28;20876;-82
2021/01/10 00:38:08;;;;;;;28.90;18.30;;;-2.50;93.50;;;;;;5012290;28;20527;-86
2021/01/10 00:40:35;;;;;;;29.70;17.80;;;-2.40;93.50;;;;;;5007929;28;20213;-83
2021/01/10 00:43:01;;;;;;;31.60;18.40;;;-2.50;93.00;;;;;;5014025;28;21402;-82
2021/01/10 00:45:28;;;;;;;28.63;18.07;;;-2.50;93.30;;;;;;5011342;28;20205;-85
2021/01/10 00:47:54;;;;;;;30.03;19.00;;;-2.50;93.50;;;;;;5012014;28;20230;-82
2021/01/10 00:50:21;;;;;;;29.33;18.60;;;-2.60;93.50;;;;;;5018815;28;20209;-81
2021/01/10 00:52:47;;;;;;;29.07;17.93;;;-2.70;93.50;;;;;;5013663;28;20235;-85
2021/01/10 00:55:13;;;;;;;30.57;18.90;;;-2.70;93.70;;;;;;5012027;28;20860;-83
2021/01/10 00:57:40;;;;;;;31.27;18.67;;;-2.80;93.70;;;;;;5013795;28;20203;-86
2021/01/10 01:00:11;;;;;;;31.63;19.43;;;-2.80;93.80;;;;;;5011517;28;20792;-82
2021/01/10 01:02:38;;;;;;;30.33;17.77;;;-2.80;94.30;;;;;;5014961;28;20203;-83
2021/01/10 01:05:05;;;;;;;40.67;19.23;;;-2.80;94.20;;;;;;5011332;28;20204;-86
2021/01/10 01:07:31;;;;;;;33.93;19.53;;;-2.90;94.40;;;;;;5013054;28;20210;-84
2021/01/10 01:09:57;;;;;;;37.87;19.27;;;-2.90;94.70;;;;;;5011556;28;20659;-84
2021/01/10 01:12:24;;;;;;;35.17;19.53;;;-2.90;95.00;;;;;;5009779;28;20203;-84
2021/01/10 01:14:51;;;;;;;34.97;19.37;;;-2.90;95.20;;;;;;5013949;28;20233;-83
2021/01/10 01:17:18;;;;;;;33.00;18.07;;;-2.90;95.10;;;;;;5027681;28;20193;-83
2021/01/10 01:19:45;;;;;;;36.23;18.20;;;-3.00;94.90;;;;;;5028565;28;20239;-85
2021/01/10 01:22:11;;;;;;;31.53;18.60;;;-3.10;95.10;;;;;;5026883;28;20582;-82
2021/01/10 01:24:37;;;;;;;35.47;19.47;;;-3.10;95.30;;;;;;5029204;28;20225;-82
2021/01/10 01:27:04;;;;;;;33.33;19.07;;;-3.10;95.30;;;;;;5025049;28;20191;-82
2021/01/10 01:29:30;;;;;;;33.00;18.17;;;-3.20;95.20;;;;;;5028023;28;20568;-82
2021/01/10 01:31:58;;;;;;;34.27;17.77;;;-3.10;95.00;;;;;;5030848;28;20199;-84
2021/01/10 01:34:24;;;;;;;41.77;16.83;;;-3.00;94.50;;;;;;5029860;28;20219;-82
2021/01/10 01:36:50;;;;;;;30.90;16.83;;;-3.10;94.50;;;;;;5028078;28;20516;-84
2021/01/10 01:39:17;;;;;;;36.40;17.73;;;-3.10;94.70;;;;;;5027398;28;20235;-84
2021/01/10 01:41:43;;;;;;;37.73;16.33;;;-3.20;94.60;;;;;;5030211;28;20201;-83
2021/01/10 01:44:09;;;;;;;33.83;15.90;;;-3.00;94.40;;;;;;5030654;28;20228;-82
2021/01/10 01:46:37;;;;;;;39.10;16.83;;;-3.00;94.30;;;;;;5031576;28;20206;-83
2021/01/10 01:49:06;;;;;;;32.77;16.87;;;-3.10;94.00;;;;;;5026292;28;20692;-84
2021/01/10 01:51:34;;;;;;;35.60;18.13;;;-3.00;94.20;;;;;;5034497;28;20195;-87
2021/01/10 01:54:01;;;;;;;32.87;18.30;;;-2.90;93.40;;;;;;5031573;28;20226;-85
2021/01/10 01:56:27;;;;;;;30.83;17.27;;;-2.80;93.40;;;;;;5028405;28;20681;-82
2021/01/10 01:58:58;;;;;;;32.00;17.67;;;-2.90;93.00;;;;;;5032421;28;20230;-85
2021/01/10 02:01:26;;;;;;;34.57;17.47;;;-2.90;92.80;;;;;;5028637;28;20661;-82
2021/01/10 02:03:59;;;;;;;30.60;17.47;;;-3.10;92.60;;;;;;5029797;28;20702;-82
2021/01/10 02:06:30;;;;;;;30.23;16.60;;;-3.20;93.30;;;;;;5026531;28;20743;-82
2021/01/10 02:09:04;;;;;;;31.20;17.77;;;-3.40;93.30;;;;;;5030284;28;20225;-82
2021/01/10 02:11:33;;;;;;;28.70;15.87;;;-3.50;94.00;;;;;;5033091;28;20296;-84
2021/01/10 02:14:03;;;;;;;27.20;16.33;;;-3.50;94.80;;;;;;5032693;28;20226;-82
2021/01/10 02:16:29;;;;;;;29.87;16.80;;;-3.40;94.80;;;;;;5036209;28;20257;-86
2021/01/10 02:18:58;;;;;;;29.50;16.53;;;-3.20;93.90;;;;;;5029359;28;20232;-83
2021/01/10 02:21:27;;;;;;;30.90;16.20;;;-3.10;93.60;;;;;;5027440;28;20248;-86
2021/01/10 02:24:01;;;;;;;30.90;16.37;;;-3.00;92.60;;;;;;5030173;28;20333;-84
2021/01/10 02:26:29;;;;;;;31.93;17.67;;;-3.00;92.00;;;;;;5028791;28;20689;-84
2021/01/10 02:28:55;;;;;;;28.93;16.40;;;-3.20;92.10;;;;;;5029282;28;20222;-85
2021/01/10 02:31:24;;;;;;;29.87;16.63;;;-3.10;92.30;;;;;;5033550;28;20294;-83
2021/01/10 02:33:55;;;;;;;34.10;17.53;;;-3.10;92.10;;;;;;5033235;28;20489;-84
2021/01/10 02:36:29;;;;;;;31.53;17.13;;;-3.20;91.80;;;;;;5029217;28;20221;-86
2021/01/10 02:39:04;;;;;;;31.17;16.60;;;-3.20;91.60;;;;;;5029959;28;20696;-84
2021/01/10 02:41:41;;;;;;;33.83;16.87;;;-3.20;91.50;;;;;;5028819;28;20196;-85
2021/01/10 02:44:16;;;;;;;32.73;16.83;;;-3.20;91.40;;;;;;5026357;28;20222;-86
2021/01/10 02:46:46;;;;;;;30.60;16.53;;;-3.30;91.30;;;;;;5031452;28;20202;-84
2021/01/10 02:49:13;;;;;;;30.67;16.83;;;-3.50;91.70;;;;;;5024848;28;20269;-85
2021/01/10 02:51:39;;;;;;;29.67;15.43;;;-3.50;91.60;;;;;;5028768;28;20243;-83
2021/01/10 02:54:06;;;;;;;27.67;15.97;;;-3.50;91.20;;;;;;5024803;28;20237;-88
2021/01/10 02:56:36;;;;;;;25.87;14.30;;;-3.60;90.90;;;;;;5027643;28;20229;-84
2021/01/10 02:59:03;;;;;;;26.83;14.13;;;-3.70;90.80;;;;;;5024153;28;20642;-86
2021/01/10 03:01:30;;;;;;;27.47;15.83;;;-3.80;90.60;;;;;;5029390;28;20582;-84
2021/01/10 03:03:57;;;;;;;27.00;14.80;;;-4.00;90.80;;;;;;5029523;28;20214;-84
2021/01/10 03:06:23;;;;;;;27.87;14.37;;;-4.10;91.20;;;;;;5033323;28;20198;-84
2021/01/10 03:08:50;;;;;;;25.83;13.93;;;-4.20;91.30;;;;;;5029846;28;20219;-83
2021/01/10 03:11:17;;;;;;;28.27;15.07;;;-4.20;91.60;;;;;;5029802;28;20220;-85
2021/01/10 03:13:44;;;;;;;25.10;14.57;;;-4.00;91.30;;;;;;5032775;28;20217;-84
2021/01/10 03:16:10;;;;;;;24.97;14.10;;;-4.00;91.00;;;;;;5029618;28;20229;-84
2021/01/10 03:18:37;;;;;;;23.83;13.63;;;-4.00;91.00;;;;;;5032844;28;20222;-86
2021/01/10 03:21:03;;;;;;;24.77;13.57;;;-3.90;90.80;;;;;;5028787;28;20199;-84
2021/01/10 03:23:29;;;;;;;22.73;13.50;;;-3.90;90.60;;;;;;5031729;28;20237;-84
2021/01/10 03:25:56;;;;;;;27.90;14.43;;;-3.90;90.50;;;;;;5032131;28;20206;-86
2021/01/10 03:28:23;;;;;;;22.43;13.40;;;-4.00;90.60;;;;;;5029871;28;20694;-86
2021/01/10 03:30:49;;;;;;;24.20;13.80;;;-4.00;90.60;;;;;;5031106;28;20642;-85
2021/01/10 03:33:16;;;;;;;23.80;13.67;;;-4.00;90.50;;;;;;5032525;28;20230;-84
2021/01/10 03:35:42;;;;;;;26.20;14.37;;;-4.10;90.60;;;;;;5034446;28;20230;-84
2021/01/10 03:38:09;;;;;;;26.03;14.97;;;-4.20;90.90;;;;;;5033090;28;20228;-83
2021/01/10 03:40:35;;;;;;;24.00;13.93;;;-4.30;91.20;;;;;;5031782;28;20198;-85
2021/01/10 03:43:01;;;;;;;24.90;13.40;;;-4.10;91.10;;;;;;5033175;28;20222;-85
2021/01/10 03:45:29;;;;;;;22.57;12.57;;;-4.00;91.10;;;;;;5032064;28;20699;-85
2021/01/10 03:47:55;;;;;;;24.83;13.63;;;-3.90;90.50;;;;;;5036472;28;20577;-84
2021/01/10 03:50:21;;;;;;;23.63;13.27;;;-4.00;90.30;;;;;;5030314;28;20199;-86
2021/01/10 03:52:48;;;;;;;22.23;12.97;;;-4.00;90.30;;;;;;5031991;28;20707;-87
2021/01/10 03:55:14;;;;;;;22.97;13.60;;;-4.00;90.20;;;;;;5030882;28;20261;-86
2021/01/10 03:57:40;;;;;;;22.90;13.30;;;-4.00;89.90;;;;;;5035324;28;20200;-84
2021/01/10 04:00:09;;;;;;;23.47;13.93;;;-4.00;89.70;;;;;;5030349;28;20700;-84
2021/01/10 04:02:36;;;;;;;24.63;13.40;;;-4.10;90.00;;;;;;5025115;28;20629;-83
2021/01/10 04:05:03;;;;;;;21.83;12.50;;;-4.30;90.20;;;;;;5032753;28;20283;-84
2021/01/10 04:07:30;;;;;;;22.20;12.40;;;-4.30;90.40;;;;;;5028078;28;20200;-83
2021/01/10 04:09:56;;;;;;;22.63;13.17;;;-4.20;90.50;;;;;;5027081;28;20205;-89
2021/01/10 04:12:22;;;;;;;21.77;12.47;;;-4.20;90.60;;;;;;5026237;28;20201;-85
2021/01/10 04:14:49;;;;;;;22.70;13.07;;;-4.30;90.40;;;;;;5025613;28;20228;-86
2021/01/10 04:17:15;;;;;;;20.17;12.57;;;-4.30;90.40;;;;;;5030213;28;20228;-84
2021/01/10 04:19:42;;;;;;;23.00;13.63;;;-4.30;90.40;;;;;;5023010;28;20226;-83
2021/01/10 04:22:08;;;;;;;24.50;13.13;;;-4.20;90.10;;;;;;5030044;28;20206;-89
2021/01/10 04:24:35;;;;;;;21.70;12.97;;;-4.40;90.20;;;;;;5024995;28;20684;-88
2021/01/10 04:27:01;;;;;;;21.00;12.43;;;-4.40;90.40;;;;;;5026104;28;20206;-84
2021/01/10 04:29:27;;;;;;;22.40;12.87;;;-4.30;90.40;;;;;;5030558;28;20225;-85
2021/01/10 04:31:55;;;;;;;22.40;12.70;;;-4.30;89.90;;;;;;5026110;28;20224;-85
2021/01/10 04:34:21;;;;;;;22.37;13.40;;;-4.20;89.40;;;;;;5030884;28;20232;-87
2021/01/10 04:36:49;;;;;;;22.20;12.97;;;-4.20;89.40;;;;;;5032868;28;20224;-84
2021/01/10 04:39:15;;;;;;;23.03;12.67;;;-4.30;89.10;;;;;;5033274;28;20560;-84
2021/01/10 04:41:43;;;;;;;22.20;12.43;;;-4.40;89.70;;;;;;5028017;28;20207;-84
2021/01/10 04:44:10;;;;;;;23.63;13.53;;;-4.40;89.30;;;;;;5031125;28;20236;-83
2021/01/10 04:46:38;;;;;;;21.57;12.23;;;-4.40;89.20;;;;;;5032350;28;20216;-85
2021/01/10 04:49:04;;;;;;;24.53;13.43;;;-4.40;88.50;;;;;;5033060;28;20234;-86
2021/01/10 04:51:33;;;;;;;28.03;15.07;;;-4.50;88.70;;;;;;5031270;28;20200;-84
2021/01/10 04:54:03;;;;;;;26.17;14.30;;;-4.50;89.00;;;;;;5033547;28;20251;-85
2021/01/10 04:56:31;;;;;;;25.60;14.53;;;-4.60;88.60;;;;;;5031103;28;20229;-84
2021/01/10 04:59:01;;;;;;;25.33;13.97;;;-4.70;88.90;;;;;;5031999;28;20684;-85
2021/01/10 05:01:35;;;;;;;25.47;14.07;;;-4.70;88.90;;;;;;5031889;28;20205;-84
2021/01/10 05:04:03;;;;;;;25.57;13.27;;;-4.90;88.60;;;;;;5033315;28;20222;-84
2021/01/10 05:06:34;;;;;;;24.90;13.20;;;-5.00;90.30;;;;;;5033728;28;20207;-83
2021/01/10 05:09:03;;;;;;;27.33;13.97;;;-5.00;90.70;;;;;;5029399;28;20713;-84
2021/01/10 05:11:29;;;;;;;25.43;13.53;;;-4.80;90.70;;;;;;5031627;28;20199;-84
2021/01/10 05:13:55;;;;;;;26.50;13.53;;;-4.70;90.20;;;;;;5031464;28;20219;-85
2021/01/10 05:16:22;;;;;;;23.60;12.93;;;-4.60;90.00;;;;;;5034892;28;20235;-85
2021/01/10 05:18:52;;;;;;;24.67;13.17;;;-4.60;88.40;;;;;;5029022;28;20221;-83
2021/01/10 05:21:20;;;;;;;25.27;12.80;;;-4.70;87.80;;;;;;5033058;28;20220;-85
2021/01/10 05:23:50;;;;;;;27.13;13.67;;;-4.60;87.30;;;;;;5030518;28;20571;-84
2021/01/10 05:26:19;;;;;;;27.23;14.57;;;-4.70;86.40;;;;;;5029925;28;20204;-84
2021/01/10 05:28:45;;;;;;;26.17;13.67;;;-4.70;86.30;;;;;;5033043;28;20703;-84
2021/01/10 05:31:12;;;;;;;25.87;13.57;;;-4.90;86.70;;;;;;5033753;28;20204;-84
2021/01/10 05:33:49;;;;;;;23.03;12.73;;;-5.00;87.80;;;;;;5033225;28;20233;-84
2021/01/10 05:36:26;;;;;;;24.90;13.60;;;-4.90;87.70;;;;;;5030262;28;20235;-83
2021/01/10 05:38:53;;;;;;;25.73;12.80;;;-4.90;86.70;;;;;;5029288;28;20328;-84
2021/01/10 05:41:23;;;;;;;23.40;12.53;;;-4.90;86.20;;;;;;5029683;28;20204;-85
2021/01/10 05:43:59;;;;;;;27.80;14.07;;;-5.00;85.90;;;;;;5033514;28;20230;-84
2021/01/10 05:46:27;;;;;;;24.10;12.73;;;-5.00;87.40;;;;;;5029581;28;20208;-84
2021/01/10 05:48:53;;;;;;;26.47;13.63;;;-5.10;89.40;;;;;;5039862;28;20236;-83
2021/01/10 05:51:21;;;;;;;24.33;12.33;;;-5.10;90.30;;;;;;5036452;28;20208;-87
2021/01/10 05:53:47;;;;;;;22.83;12.27;;;-5.20;90.50;;;;;;5034626;28;20216;-83
2021/01/10 05:56:18;;;;;;;21.83;12.13;;;-5.20;90.70;;;;;;5035930;28;20239;-84
2021/01/10 05:58:53;;;;;;;24.57;13.27;;;-5.20;90.90;;;;;;5036454;28;20234;-87
2021/01/10 06:01:21;;;;;;;27.20;13.80;;;-5.20;90.90;;;;;;5031976;28;20220;-84
2021/01/10 06:03:48;;;;;;;25.03;13.43;;;-5.20;90.70;;;;;;5035065;28;20220;-86
2021/01/10 06:06:14;;;;;;;26.50;13.73;;;-5.20;90.20;;;;;;5038087;28;20202;-84
2021/01/10 06:08:41;;;;;;;26.07;14.27;;;-5.20;90.10;;;;;;5036956;28;20227;-83
2021/01/10 06:11:22;;;;;;;28.13;14.27;;;-5.40;90.20;;;;;;5036538;28;20252;-84
2021/01/10 06:13:52;;;;;;;25.67;13.27;;;-5.30;90.10;;;;;;5035740;28;20216;-84
2021/01/10 06:16:19;;;;;;;25.67;13.37;;;-5.30;89.70;;;;;;5037137;28;20229;-84
2021/01/10 06:18:48;;;;;;;22.73;12.50;;;-5.40;89.70;;;;;;5038608;28;20239;-84
2021/01/10 06:21:18;;;;;;;21.57;12.23;;;-5.40;90.20;;;;;;5030501;28;20200;-86
2021/01/10 06:23:47;;;;;;;20.67;11.03;;;-5.40;90.40;;;;;;5034190;28;20223;-83
2021/01/10 06:26:17;;;;;;;23.53;11.97;;;-5.30;90.40;;;;;;5030297;28;20620;-83
2021/01/10 06:28:51;;;;;;;20.87;11.67;;;-5.10;90.30;;;;;;5032466;28;20218;-84
2021/01/10 06:31:23;;;;;;;21.47;11.63;;;-5.20;90.20;;;;;;5035124;28;20255;-84
2021/01/10 06:33:59;;;;;;;22.30;11.47;;;-5.00;90.90;;;;;;5033598;28;20313;-87
2021/01/10 06:36:26;;;;;;;24.83;13.83;;;-4.90;90.30;;;;;;5034147;28;20235;-85
2021/01/10 06:38:59;;;;;;;31.40;13.83;;;-4.80;90.30;;;;;;5019928;28;20235;-85
2021/01/10 06:41:58;;;;;;;26.03;14.07;;;-4.70;90.30;;;;;;5033685;28;20200;-84
2021/01/10 06:44:25;;;;;;;28.90;13.63;;;-4.70;90.50;;;;;;5029782;28;20228;-85
2021/01/10 06:46:53;;;;;;;24.57;13.20;;;-4.90;90.60;;;;;;5032777;28;20215;-83
2021/01/10 06:49:19;;;;;;;25.57;13.60;;;-4.80;91.10;;;;;;5033943;28;20523;-86
2021/01/10 06:51:47;;;;;;;30.67;13.40;;;-4.80;91.30;;;;;;5032922;28;20261;-84
2021/01/10 06:54:14;;;;;;;48.07;15.40;;;-4.90;91.00;;;;;;5034254;28;20638;-84
2021/01/10 06:56:47;;;;;;;27.27;13.77;;;-5.00;91.30;;;;;;5030884;28;20639;-84
2021/01/10 06:59:15;;;;;;;34.93;14.93;;;-5.00;91.50;;;;;;5027475;28;20693;-84
2021/01/10 07:02:13;;;;;;;35.07;15.20;;;-5.10;91.50;;;;;;5031074;28;20609;-84
2021/01/10 07:04:59;;;;;;;38.43;14.40;;;-5.10;92.20;;;;;;4980460;28;20221;-86
2021/01/10 07:07:42;;;;;;;35.87;14.30;;;-4.80;92.40;;;;;;5021803;28;20485;-85
2021/01/10 07:10:23;;;;;;;50.03;14.60;;;-4.80;92.10;;;;;;5029146;28;20557;-86
2021/01/10 07:12:51;;;;;;;40.13;14.70;;;-4.80;92.10;;;;;;5030409;28;20229;-85
2021/01/10 07:15:27;;;;;;;36.27;14.50;;;-4.90;92.40;;;;;;5033961;28;20195;-84
2021/01/10 07:18:16;;;;;;;49.60;14.90;;;-4.80;93.10;;;;;;5029601;28;20279;-88
2021/01/10 07:20:45;;;;;;;42.47;14.97;;;-4.60;93.10;;;;;;5023266;28;20260;-84
2021/01/10 07:23:32;;;;;;;58.57;14.40;;;-4.30;93.10;;;;;;5029436;28;20242;-85
2021/01/10 07:26:00;;;;;;;44.67;14.77;;;-4.30;93.10;;;;;;5030771;28;20641;-85
2021/01/10 07:28:34;;;;;;;36.97;14.87;;;-4.20;93.10;;;;;;5029698;28;20236;-86
2021/01/10 07:31:18;;;;;;;32.00;13.70;;;-4.00;93.20;;;;;;5025967;28;20220;-85
2021/01/10 07:33:46;;;;;;;30.73;13.53;;;-3.80;93.00;;;;;;5028553;28;20218;-82
2021/01/10 07:36:14;;;;;;;34.87;14.03;;;-3.70;92.60;;;;;;5030863;28;20234;-83
2021/01/10 07:38:42;;;;;;;49.30;15.33;;;-3.60;92.40;;;;;;5027346;28;20221;-83
2021/01/10 07:41:30;;;;;;;96.07;15.80;;;-3.60;92.10;;;;;;5030368;28;20260;-85
2021/01/10 07:43:57;;;;;;;32.80;15.03;;;-3.70;92.20;;;;;;5030943;28;20226;-82
2021/01/10 07:47:00;;;;;;;36.70;14.90;;;-3.40;92.70;;;;;;5031021;28;20651;-82
2021/01/10 07:49:47;;;;;;;29.73;13.93;;;-3.30;92.00;;;;;;5030445;28;20233;-81
2021/01/10 07:52:13;;;;;;;36.53;16.00;;;-3.10;91.40;;;;;;5028280;28;20229;-82
2021/01/10 07:54:54;;;;;;;32.10;14.80;;;-3.00;90.70;;;;;;5029891;28;20222;-82
2021/01/10 07:57:41;;;;;;;33.80;15.57;;;-2.90;90.70;;;;;;5031403;28;20224;-82
2021/01/10 08:00:13;;;;;;;34.57;16.60;;;-2.70;90.20;;;;;;5024586;28;20230;-83
2021/01/10 08:02:54;;;;;;;42.30;16.47;;;-2.90;89.90;;;;;;5028197;28;20196;-82
2021/01/10 08:05:24;;;;;;;35.17;16.37;;;-3.00;90.20;;;;;;5028475;28;20206;-82
2021/01/10 08:07:56;;;;;;;40.53;17.07;;;-2.90;90.60;;;;;;5031124;28;21064;-82
2021/01/10 08:10:24;;;;;;;39.83;17.60;;;-2.60;90.20;;;;;;5026006;28;20230;-83
2021/01/10 08:12:51;;;;;;;43.23;17.07;;;-2.60;89.50;;;;;;5030025;28;20224;-81
2021/01/10 08:15:18;;;;;;;36.50;16.93;;;-2.80;89.30;;;;;;5028880;28;20291;-81
2021/01/10 08:17:45;;;;;;;37.57;16.40;;;-2.80;90.40;;;;;;5029995;28;20192;-82
2021/01/10 08:20:12;;;;;;;49.37;17.50;;;-2.70;90.20;;;;;;5024897;28;20199;-84
2021/01/10 08:22:40;;;;;;;30.93;16.87;;;-2.60;88.10;;;;;;5024505;28;20204;-84
2021/01/10 08:25:22;;;;;;;37.90;17.87;;;-2.70;89.80;;;;;;5029175;28;20205;-82
2021/01/10 08:27:49;;;;;;;32.90;16.73;;;-2.60;89.40;;;;;;5025529;28;20324;-84
2021/01/10 08:30:16;;;;;;;33.63;17.37;;;-2.70;90.00;;;;;;5026147;28;20220;-80
2021/01/10 08:32:43;;;;;;;32.83;16.87;;;-2.60;90.30;;;;;;5019844;28;20606;-81
2021/01/10 08:35:10;;;;;;;29.87;16.37;;;-2.40;89.90;;;;;;5021449;28;20200;-79
2021/01/10 08:37:37;;;;;;;33.17;16.77;;;-2.30;88.10;;;;;;5025836;28;20229;-80
2021/01/10 08:40:08;;;;;;;30.37;16.13;;;-2.10;88.50;;;;;;5028823;28;20602;-81
2021/01/10 08:42:36;;;;;;;32.00;16.80;;;-1.50;85.60;;;;;;5027174;28;20223;-80
2021/01/10 08:45:22;;;;;;;33.97;17.10;;;-1.40;84.20;;;;;;5023213;28;20202;-81
2021/01/10 08:47:49;;;;;;;32.70;17.50;;;-1.50;84.70;;;;;;5028874;28;20222;-79
2021/01/10 08:50:16;;;;;;;33.43;17.77;;;-1.30;83.20;;;;;;5029034;28;20215;-87
2021/01/10 08:52:53;;;;;;;32.60;18.30;;;-1.30;84.10;;;;;;5031781;28;20226;-87
2021/01/10 08:55:36;;;;;;;25.00;15.10;;;-1.30;83.40;;;;;;5027429;28;20492;-85
2021/01/10 08:58:04;;;;;;;29.37;15.40;;;-1.30;82.90;;;;;;5029471;28;20755;-83
2021/01/10 09:00:31;;;;;;;27.80;16.17;;;-1.40;82.90;;;;;;5028899;28;20237;-84
2021/01/10 09:03:16;;;;;;;31.50;18.20;;;-1.50;84.90;;;;;;5029434;28;20223;-85
2021/01/10 09:05:44;;;;;;;30.50;16.27;;;-1.50;83.60;;;;;;5023382;28;20628;-82
2021/01/10 09:08:23;;;;;;;30.13;16.97;;;-1.70;84.80;;;;;;5022520;28;20285;-83
2021/01/10 09:11:00;;;;;;;26.47;15.13;;;-1.70;84.80;;;;;;5037449;28;20199;-84
2021/01/10 09:13:30;;;;;;;25.97;14.77;;;-1.60;84.80;;;;;;5022400;28;20246;-82
2021/01/10 09:16:02;;;;;;;27.90;16.10;;;-1.30;84.00;;;;;;5025013;28;20231;-81
2021/01/10 09:18:31;;;;;;;28.13;15.43;;;-1.00;82.60;;;;;;5030183;28;20249;-81
2021/01/10 09:21:06;;;;;;;28.33;15.37;;;-0.80;81.10;;;;;;5035651;28;20241;-80
2021/01/10 09:23:39;;;;;;;28.33;15.60;;;-1.10;82.20;;;;;;5036655;28;20619;-82
2021/01/10 09:26:07;;;;;;;30.40;16.33;;;-1.10;82.30;;;;;;5036653;28;20194;-88
2021/01/10 09:28:33;;;;;;;33.00;16.70;;;-1.10;82.10;;;;;;5036190;28;20230;-84
2021/01/10 09:31:01;;;;;;;29.13;16.23;;;-1.20;82.80;;;;;;5037308;28;20612;-82
2021/01/10 09:33:29;;;;;;;32.30;17.63;;;-1.20;82.10;;;;;;5034190;28;20233;-81
2021/01/10 09:35:57;;;;;;;33.80;18.00;;;-1.10;80.60;;;;;;5031934;28;20276;-82
2021/01/10 09:38:25;;;;;;;34.20;18.73;;;-1.20;82.50;;;;;;5033750;28;20321;-83
2021/01/10 09:41:06;;;;;;;31.13;17.80;;;-0.80;81.90;;;;;;5031360;28;20191;-81
2021/01/10 09:43:41;;;;;;;33.60;18.77;;;-1.00;81.60;;;;;;5029283;28;20246;-83
2021/01/10 09:46:31;;;;;;;33.07;18.47;;;-0.90;82.60;;;;;;5030283;28;20216;-81
2021/01/10 09:48:59;;;;;;;35.03;18.33;;;-1.10;83.40;;;;;;5032339;28;20218;-84
2021/01/10 09:51:33;;;;;;;34.90;18.00;;;-0.90;82.60;;;;;;5030251;28;20285;-88
2021/01/10 09:54:10;;;;;;;32.60;18.20;;;-0.80;82.00;;;;;;5026358;28;20221;-85
2021/01/10 09:56:44;;;;;;;35.23;18.77;;;-0.70;80.60;;;;;;5028837;28;20599;-86
2021/01/10 09:59:35;;;;;;;34.97;18.43;;;-0.70;80.60;;;;;;5031497;28;20253;-81
2021/01/10 10:02:08;;;;;;;33.90;18.23;;;-0.60;81.20;;;;;;5030573;28;20206;-82
2021/01/10 10:04:35;;;;;;;32.83;17.93;;;-0.70;81.30;;;;;;5028071;28;20337;-83
2021/01/10 10:07:01;;;;;;;32.33;17.87;;;-0.60;82.20;;;;;;5039568;28;20214;-84
2021/01/10 10:09:53;;;;;;;30.33;17.23;;;-0.60;80.90;;;;;;5033774;28;20218;-81
2021/01/10 10:12:21;;;;;;;31.10;18.37;;;-0.70;81.60;;;;;;5028648;28;20229;-82
2021/01/10 10:14:58;;;;;;;29.47;17.93;;;-0.80;81.60;;;;;;5030946;28;20580;-81
2021/01/10 10:17:30;;;;;;;30.50;16.77;;;-0.80;82.10;;;;;;5031323;28;20232;-80
2021/01/10 10:20:01;;;;;;;28.27;16.93;;;-0.70;81.20;;;;;;5020420;28;20227;-86
2021/01/10 10:22:30;;;;;;;30.77;17.00;;;-0.10;80.70;;;;;;5028396;28;20194;-81
2021/01/10 10:24:57;;;;;;;32.90;18.47;;;0.00;77.60;;;;;;5025305;28;20287;-82
2021/01/10 10:27:27;;;;;;;30.27;17.77;;;0.20;76.70;;;;;;5027379;28;20229;-83
2021/01/10 10:29:53;;;;;;;32.57;18.47;;;-0.10;77.20;;;;;;5026947;28;20287;-88
2021/01/10 10:32:20;;;;;;;32.53;18.40;;;-0.30;79.40;;;;;;5028641;28;20202;-81
2021/01/10 10:34:46;;;;;;;30.53;18.70;;;-0.30;80.20;;;;;;5027120;28;20473;-82
2021/01/10 10:37:13;;;;;;;32.07;18.77;;;-0.20;79.70;;;;;;5032515;28;20222;-82
2021/01/10 10:39:40;;;;;;;32.40;19.07;;;-0.10;79.90;;;;;;5031363;28;20231;-82
2021/01/10 10:42:13;;;;;;;31.97;19.43;;;-0.10;80.10;;;;;;5032069;28;20209;-81
2021/01/10 10:44:41;;;;;;;34.73;20.23;;;0.00;80.10;;;;;;5030208;28;20222;-82
2021/01/10 10:47:12;;;;;;;35.27;19.93;;;0.30;78.30;;;;;;5032365;28;20256;-81
2021/01/10 10:49:38;;;;;;;33.73;19.73;;;0.30;79.00;;;;;;5026577;28;20222;-82
2021/01/10 10:52:07;;;;;;;31.50;19.37;;;0.80;75.40;;;;;;5027891;28;20796;-83
2021/01/10 10:54:34;;;;;;;30.97;18.00;;;0.70;76.60;;;;;;5022433;28;20229;-82
2021/01/10 10:57:00;;;;;;;28.53;17.57;;;0.60;78.20;;;;;;5030361;28;20222;-82
2021/01/10 10:59:27;;;;;;;28.47;16.83;;;1.00;76.60;;;;;;5002530;28;591342;-84
2021/01/10 11:01:54;;;;;;;27.77;17.67;;;1.80;73.30;;;;;;5031469;28;20206;-82
2021/01/10 11:04:20;;;;;;;26.67;17.67;;;2.30;69.10;;;;;;5033509;28;20238;-83
2021/01/10 11:06:46;;;;;;;24.57;17.13;;;3.60;63.00;;;;;;5032942;28;20757;-85
2021/01/10 11:09:13;;;;;;;33.40;19.93;;;3.90;58.00;;;;;;5033149;28;20230;-87
2021/01/10 11:11:40;;;;;;;30.40;19.83;;;4.50;56.80;;;;;;5030856;28;20715;-88
2021/01/10 11:14:08;;;;;;;31.30;20.00;;;4.50;55.20;;;;;;5034717;28;20237;-85
2021/01/10 11:16:35;;;;;;;29.13;19.30;;;3.70;58.00;;;;;;5035043;28;20218;-86
2021/01/10 11:19:05;;;;;;;28.77;18.83;;;3.20;60.30;;;;;;5034109;28;20223;-84
2021/01/10 11:21:33;;;;;;;28.67;18.63;;;2.60;62.40;;;;;;5032350;28;20204;-82
2021/01/10 11:23:59;;;;;;;29.40;18.83;;;1.90;66.50;;;;;;5035972;28;20267;-85
2021/01/10 11:26:26;;;;;;;29.27;18.10;;;1.70;71.20;;;;;;5047688;28;20194;-81
2021/01/10 11:28:52;;;;;;;28.93;18.23;;;1.70;69.10;;;;;;5030487;28;20297;-81
2021/01/10 11:31:19;;;;;;;30.03;18.27;;;1.60;72.30;;;;;;5033358;28;20430;-80
2021/01/10 11:33:46;;;;;;;31.37;18.20;;;1.20;75.00;;;;;;5031706;28;20279;-81
2021/01/10 11:36:14;;;;;;;30.23;18.20;;;1.20;74.60;;;;;;5032132;28;20229;-82
2021/01/10 11:38:41;;;;;;;29.20;18.63;;;1.20;75.10;;;;;;5030878;28;20252;-81
2021/01/10 11:41:08;;;;;;;29.87;17.50;;;1.00;76.00;;;;;;5031477;28;20213;-81
2021/01/10 11:43:35;;;;;;;30.87;17.33;;;1.00;76.10;;;;;;5030040;28;20215;-81
2021/01/10 11:46:03;;;;;;;27.60;16.03;;;1.10;75.80;;;;;;5031966;28;20206;-85
2021/01/10 11:48:30;;;;;;;30.40;18.03;;;1.10;76.60;;;;;;5030343;28;20233;-82
2021/01/10 11:50:56;;;;;;;34.57;19.17;;;1.10;76.50;;;;;;5028139;28;20201;-88
2021/01/10 11:53:23;;;;;;;29.00;17.63;;;1.00;77.90;;;;;;5028070;28;20267;-88
2021/01/10 11:55:50;;;;;;;29.93;17.70;;;1.00;77.10;;;;;;5022831;28;20193;-84
2021/01/10 11:58:16;;;;;;;30.27;17.63;;;1.00;76.90;;;;;;5019665;28;20348;-87
2021/01/10 12:00:42;;;;;;;29.63;17.00;;;1.00;77.10;;;;;;5067448;22;20245;-82
2021/01/10 12:03:09;;;;;;;31.20;17.37;;;0.90;77.10;;;;;;5020511;28;20587;-85
2021/01/10 12:05:40;;;;;;;30.77;17.80;;;0.90;78.60;;;;;;5030781;28;20201;-87
2021/01/10 12:08:10;;;;;;;31.50;16.17;;;0.90;78.40;;;;;;5029643;28;20757;-86
2021/01/10 12:10:38;;;;;;;30.67;17.53;;;0.90;77.70;;;;;;5018215;28;20215;-89
2021/01/10 12:13:04;;;;;;;31.70;18.40;;;0.80;79.10;;;;;;5024418;28;20248;-83
2021/01/10 12:15:33;;;;;;;30.23;17.80;;;0.60;79.70;;;;;;5029980;28;20834;-81
2021/01/10 12:17:59;;;;;;;29.87;17.87;;;0.50;81.40;;;;;;5015942;28;20283;-86
2021/01/10 12:20:25;;;;;;;26.93;15.63;;;0.60;81.30;;;;;;5017479;28;20202;-84
2021/01/10 12:22:52;;;;;;;28.00;15.67;;;0.50;80.50;;;;;;5024640;28;20233;-85
2021/01/10 12:25:18;;;;;;;27.83;16.60;;;0.40;80.70;;;;;;5027738;28;20528;-82
2021/01/10 12:27:46;;;;;;;28.77;16.07;;;0.40;81.40;;;;;;5030177;28;20545;-81
2021/01/10 12:30:13;;;;;;;28.97;16.73;;;0.40;80.60;;;;;;5028113;28;20200;-85
2021/01/10 12:32:40;;;;;;;29.50;16.50;;;0.50;81.40;;;;;;5028493;28;20199;-83
2021/01/10 12:35:09;;;;;;;32.57;17.67;;;0.60;80.60;;;;;;5026813;28;20202;-88
2021/01/10 12:37:36;;;;;;;26.90;15.83;;;0.70;80.80;;;;;;5025402;28;20613;-81
2021/01/10 12:40:04;;;;;;;30.63;17.30;;;1.00;78.20;;;;;;5033863;28;20210;-85